Time;durP1;ratioP1;P1;durP2;ratioP2;P2;SDS_P1;SDS_P2;PMS_P1;PMS_P2;Temp;Humidity;BMP_temperature;BMP_pressure;BME280_temperature;BME280_humidity;BME280_pressure;Samples;Min_cycle;Max_cycle;Signal;HPM_P1;HPM_P2
2023/07/17 00:01:36;;;;;;;5.70;2.33;;;19.40;60.60;;;;;;5080897;28;20055;-67
2023/07/17 00:04:04;;;;;;;7.88;2.38;;;19.40;61.00;;;;;;5079905;28;20463;-67
2023/07/17 00:06:29;;;;;;;9.75;3.03;;;19.40;61.50;;;;;;5061766;28;20390;-66
2023/07/17 00:08:55;;;;;;;7.05;2.42;;;19.40;62.40;;;;;;5053869;28;20036;-65
2023/07/17 00:11:21;;;;;;;6.82;2.63;;;19.40;62.30;;;;;;5077966;28;20043;-65
2023/07/17 00:13:47;;;;;;;7.30;2.28;;;19.40;62.70;;;;;;5076934;28;20051;-65
2023/07/17 00:16:12;;;;;;;7.57;2.60;;;19.30;63.20;;;;;;5076993;28;20036;-65
2023/07/17 00:18:38;;;;;;;5.28;2.20;;;19.30;63.60;;;;;;5094756;28;20056;-65
2023/07/17 00:21:04;;;;;;;4.97;1.90;;;19.30;63.30;;;;;;5094934;28;20474;-66
2023/07/17 00:23:31;;;;;;;5.30;1.90;;;19.30;63.00;;;;;;5094810;28;20040;-66
2023/07/17 00:25:57;;;;;;;8.38;2.22;;;19.20;62.70;;;;;;5094763;28;20055;-67
2023/07/17 00:28:24;;;;;;;4.03;2.20;;;19.20;62.70;;;;;;5094803;28;20032;-66
2023/07/17 00:30:50;;;;;;;4.70;1.88;;;19.10;62.80;;;;;;5094552;28;20101;-66
2023/07/17 00:33:15;;;;;;;4.85;1.95;;;19.10;62.50;;;;;;5094130;28;20028;-66
2023/07/17 00:35:41;;;;;;;5.20;1.65;;;19.10;62.30;;;;;;5094742;28;20514;-65
2023/07/17 00:38:07;;;;;;;5.63;2.22;;;19.10;62.20;;;;;;5068329;28;20566;-66
2023/07/17 00:40:34;;;;;;;5.25;1.88;;;19.00;61.90;;;;;;5061014;28;20040;-66
2023/07/17 00:43:01;;;;;;;4.18;2.47;;;19.00;61.70;;;;;;5096423;28;20036;-66
2023/07/17 00:45:32;;;;;;;5.03;2.00;;;19.00;61.40;;;;;;5079180;28;20096;-66
2023/07/17 00:47:59;;;;;;;3.88;1.65;;;19.00;61.30;;;;;;5078079;28;20044;-66
2023/07/17 00:50:26;;;;;;;5.07;2.08;;;18.90;61.30;;;;;;5078754;28;20510;-65
2023/07/17 00:52:52;;;;;;;4.25;1.90;;;18.90;61.30;;;;;;5077108;28;20506;-66
2023/07/17 00:55:18;;;;;;;3.58;1.63;;;18.90;61.30;;;;;;5068899;28;20040;-67
2023/07/17 00:57:44;;;;;;;3.72;1.65;;;18.90;61.30;;;;;;5077466;28;20048;-66
2023/07/17 01:00:12;;;;;;;4.43;1.50;;;18.90;61.20;;;;;;5095659;28;20483;-66
2023/07/17 01:02:39;;;;;;;3.60;1.38;;;18.90;61.20;;;;;;5077062;28;20047;-66
2023/07/17 01:05:05;;;;;;;4.13;1.60;;;18.90;61.20;;;;;;5077381;28;20044;-66
2023/07/17 01:07:31;;;;;;;3.75;1.70;;;18.80;61.20;;;;;;5096022;28;20055;-66
2023/07/17 01:09:57;;;;;;;5.18;1.70;;;18.90;61.20;;;;;;5078120;28;20036;-66
2023/07/17 01:12:23;;;;;;;4.40;1.60;;;18.90;61.40;;;;;;5095744;28;20120;-66
2023/07/17 01:14:48;;;;;;;3.63;1.85;;;18.90;61.40;;;;;;5077938;28;20067;-66
2023/07/17 01:17:14;;;;;;;3.60;1.58;;;18.90;61.20;;;;;;5095007;28;20083;-65
2023/07/17 01:19:40;;;;;;;2.80;1.40;;;18.90;61.30;;;;;;5060792;28;20056;-66
2023/07/17 01:22:13;;;;;;;3.05;1.38;;;18.80;61.40;;;;;;5096130;28;20040;-65
2023/07/17 01:24:39;;;;;;;2.80;1.43;;;18.80;61.40;;;;;;5087858;28;20147;-66
2023/07/17 01:27:04;;;;;;;4.45;1.70;;;18.80;61.20;;;;;;5094470;28;20972;-65
2023/07/17 01:29:30;;;;;;;3.72;1.52;;;18.70;61.10;;;;;;5076756;28;20093;-66
2023/07/17 01:31:56;;;;;;;4.25;1.90;;;18.70;61.50;;;;;;5077070;28;20167;-65
2023/07/17 01:34:21;;;;;;;4.07;1.48;;;18.70;61.50;;;;;;5095212;28;20516;-66
2023/07/17 01:36:47;;;;;;;3.90;1.52;;;18.70;61.40;;;;;;5077591;28;20048;-66
2023/07/17 01:39:13;;;;;;;4.22;1.85;;;18.60;61.50;;;;;;5095686;28;20046;-66
2023/07/17 01:41:39;;;;;;;4.97;1.80;;;18.70;61.60;;;;;;5077223;28;20394;-65
2023/07/17 01:44:04;;;;;;;4.53;1.55;;;18.60;61.50;;;;;;5095150;28;20085;-65
2023/07/17 01:46:30;;;;;;;4.28;1.80;;;18.60;61.80;;;;;;5076823;28;20118;-65
2023/07/17 01:48:56;;;;;;;3.33;1.45;;;18.60;61.80;;;;;;5077507;28;20115;-66
2023/07/17 01:51:22;;;;;;;4.38;2.03;;;18.60;61.90;;;;;;5095262;28;20376;-65
2023/07/17 01:53:47;;;;;;;4.63;1.75;;;18.50;61.80;;;;;;5076195;28;20035;-66
2023/07/17 01:56:13;;;;;;;4.05;1.60;;;18.50;61.90;;;;;;5094731;28;20109;-65
2023/07/17 01:58:39;;;;;;;3.40;1.60;;;18.50;62.50;;;;;;5095018;28;20040;-65
2023/07/17 02:01:04;;;;;;;5.13;1.58;;;18.50;62.20;;;;;;5094528;28;20040;-66
2023/07/17 02:03:31;;;;;;;3.67;1.77;;;18.40;62.10;;;;;;5093918;28;20031;-67
2023/07/17 02:05:57;;;;;;;4.45;1.83;;;18.40;62.10;;;;;;5076903;28;20067;-65
2023/07/17 02:08:22;;;;;;;2.55;1.33;;;18.40;62.20;;;;;;5076835;28;20044;-65
2023/07/17 02:10:51;;;;;;;5.28;1.88;;;18.40;62.40;;;;;;5059865;28;20052;-65
2023/07/17 02:13:16;;;;;;;5.55;1.88;;;18.40;62.50;;;;;;5076339;28;20085;-65
2023/07/17 02:15:42;;;;;;;5.97;1.77;;;18.30;62.40;;;;;;5094859;28;20563;-65
2023/07/17 02:18:08;;;;;;;4.88;2.08;;;18.30;62.40;;;;;;5076848;28;20115;-65
2023/07/17 02:20:34;;;;;;;3.63;1.67;;;18.30;62.50;;;;;;5094657;28;20479;-66
2023/07/17 02:22:59;;;;;;;5.35;2.20;;;18.30;62.50;;;;;;5094171;28;20040;-66
2023/07/17 02:25:25;;;;;;;4.10;2.00;;;18.20;62.50;;;;;;5094152;28;20550;-66
2023/07/17 02:27:51;;;;;;;5.15;1.98;;;18.20;62.50;;;;;;5076533;28;20097;-65
2023/07/17 02:30:16;;;;;;;3.17;1.58;;;18.20;62.70;;;;;;5076061;28;20127;-66
2023/07/17 02:32:42;;;;;;;4.15;2.13;;;18.10;62.70;;;;;;5093263;28;20040;-66
2023/07/17 02:35:08;;;;;;;4.88;1.90;;;18.10;63.00;;;;;;5076023;28;20075;-66
2023/07/17 02:37:35;;;;;;;5.35;1.85;;;18.00;63.00;;;;;;5095203;28;20048;-65
2023/07/17 02:40:08;;;;;;;4.82;1.83;;;18.00;63.70;;;;;;5095034;28;20032;-65
2023/07/17 02:42:34;;;;;;;6.00;2.43;;;18.00;63.40;;;;;;5076998;28;20036;-65
2023/07/17 02:45:01;;;;;;;5.78;2.20;;;18.00;63.60;;;;;;5094469;28;20526;-65
2023/07/17 02:47:26;;;;;;;6.70;2.08;;;17.90;63.70;;;;;;5076684;28;20048;-65
2023/07/17 02:49:52;;;;;;;4.93;2.20;;;17.90;64.00;;;;;;5077197;28;20093;-65
2023/07/17 02:52:18;;;;;;;5.65;2.20;;;17.90;64.00;;;;;;5094849;28;20036;-66
2023/07/17 02:54:43;;;;;;;6.05;1.90;;;17.80;64.10;;;;;;5092759;28;20044;-66
2023/07/17 02:57:10;;;;;;;6.15;2.10;;;17.80;64.40;;;;;;5074895;28;20036;-66
2023/07/17 02:59:38;;;;;;;4.53;1.90;;;17.80;64.40;;;;;;5094009;28;20063;-65
2023/07/17 03:02:05;;;;;;;5.20;1.77;;;17.80;64.50;;;;;;5093031;28;20036;-66
2023/07/17 03:04:31;;;;;;;5.05;2.15;;;17.70;64.50;;;;;;5093604;28;20040;-66
2023/07/17 03:06:57;;;;;;;10.43;2.35;;;17.70;64.70;;;;;;5094102;28;20127;-66
2023/07/17 03:09:22;;;;;;;6.82;1.77;;;17.70;64.90;;;;;;5075585;28;20044;-65
2023/07/17 03:11:49;;;;;;;9.50;2.25;;;17.70;65.00;;;;;;5076758;28;20040;-66
2023/07/17 03:14:14;;;;;;;8.27;2.28;;;17.70;65.30;;;;;;5095316;28;20064;-66
2023/07/17 03:16:41;;;;;;;6.20;1.92;;;17.70;65.40;;;;;;5077214;28;20046;-66
2023/07/17 03:19:06;;;;;;;5.63;2.35;;;17.70;65.50;;;;;;5095196;28;20074;-66
2023/07/17 03:21:32;;;;;;;5.68;2.22;;;17.60;65.80;;;;;;5077915;28;20040;-66
2023/07/17 03:23:58;;;;;;;6.50;2.20;;;17.60;65.80;;;;;;5095511;28;20032;-66
2023/07/17 03:26:23;;;;;;;5.88;2.17;;;17.60;65.90;;;;;;5099473;28;20116;-66
2023/07/17 03:28:49;;;;;;;6.68;2.50;;;17.60;66.00;;;;;;5080889;28;20044;-65
2023/07/17 03:31:15;;;;;;;6.80;2.40;;;17.60;66.20;;;;;;5099055;28;20577;-65
2023/07/17 03:33:40;;;;;;;7.22;2.20;;;17.50;66.20;;;;;;5079587;28;20044;-66
2023/07/17 03:36:06;;;;;;;5.40;2.00;;;17.50;66.20;;;;;;5098103;28;20495;-66
2023/07/17 03:38:32;;;;;;;5.28;2.08;;;17.50;66.30;;;;;;5079709;28;20044;-66
2023/07/17 03:40:57;;;;;;;6.10;2.05;;;17.50;66.20;;;;;;5080004;28;20078;-66
2023/07/17 03:43:23;;;;;;;6.07;2.20;;;17.50;66.20;;;;;;5079257;28;20051;-66
2023/07/17 03:45:52;;;;;;;7.85;2.22;;;17.50;66.20;;;;;;5078253;28;20028;-65
2023/07/17 03:48:18;;;;;;;9.05;2.15;;;17.50;66.30;;;;;;5096816;28;20042;-66
2023/07/17 03:50:44;;;;;;;6.00;2.45;;;17.50;66.50;;;;;;5079028;28;20107;-66
2023/07/17 03:53:10;;;;;;;4.78;1.95;;;17.50;66.50;;;;;;5096098;28;20047;-66
2023/07/17 03:55:38;;;;;;;5.97;1.90;;;17.40;66.50;;;;;;5096064;28;20043;-66
2023/07/17 03:58:06;;;;;;;5.40;2.00;;;17.40;66.60;;;;;;5060803;28;20040;-66
2023/07/17 04:00:31;;;;;;;6.65;2.30;;;17.40;66.60;;;;;;5070823;28;20123;-66
2023/07/17 04:02:57;;;;;;;7.60;2.53;;;17.40;66.50;;;;;;5079735;28;20086;-66
2023/07/17 04:05:23;;;;;;;9.27;3.40;;;17.40;66.60;;;;;;5080182;28;20036;-66
2023/07/17 04:07:48;;;;;;;6.40;2.25;;;17.40;66.70;;;;;;5080788;28;20506;-66
2023/07/17 04:10:14;;;;;;;7.22;2.30;;;17.30;66.80;;;;;;5097616;28;20158;-65
2023/07/17 04:12:40;;;;;;;6.28;2.05;;;17.30;66.90;;;;;;5079703;28;20044;-66
2023/07/17 04:15:06;;;;;;;7.32;2.60;;;17.30;66.80;;;;;;5079350;28;20527;-65
2023/07/17 04:17:32;;;;;;;7.35;2.42;;;17.30;67.10;;;;;;5096901;28;20127;-65
2023/07/17 04:19:58;;;;;;;8.43;2.15;;;17.30;67.20;;;;;;5097569;28;20055;-66
2023/07/17 04:22:23;;;;;;;9.82;3.35;;;17.30;67.20;;;;;;5078952;28;20073;-66
2023/07/17 04:24:49;;;;;;;10.25;3.25;;;17.20;67.40;;;;;;5097028;28;20104;-65
2023/07/17 04:27:15;;;;;;;5.25;1.83;;;17.20;67.40;;;;;;5096731;28;20036;-66
2023/07/17 04:29:40;;;;;;;6.90;2.20;;;17.20;67.50;;;;;;5079446;28;20039;-65
2023/07/17 04:32:07;;;;;;;6.15;2.20;;;17.20;67.70;;;;;;5079099;28;20036;-66
2023/07/17 04:34:32;;;;;;;8.77;3.05;;;17.20;67.80;;;;;;5095970;28;20522;-65
2023/07/17 04:36:58;;;;;;;7.40;3.50;;;17.20;68.10;;;;;;5078702;28;20086;-66
2023/07/17 04:39:24;;;;;;;7.40;2.60;;;17.20;68.30;;;;;;5078284;28;20044;-65
2023/07/17 04:41:52;;;;;;;7.35;2.88;;;17.20;68.40;;;;;;5096170;28;20035;-65
2023/07/17 04:44:17;;;;;;;6.75;2.20;;;17.20;68.50;;;;;;5095897;28;20040;-65
2023/07/17 04:46:43;;;;;;;6.78;3.38;;;17.10;68.40;;;;;;5095825;28;20436;-66
2023/07/17 04:49:09;;;;;;;6.55;2.83;;;17.10;68.70;;;;;;5076843;28;20043;-65
2023/07/17 04:51:34;;;;;;;8.23;2.65;;;17.10;68.80;;;;;;5077290;28;20058;-66
2023/07/17 04:54:00;;;;;;;14.07;3.45;;;17.10;68.90;;;;;;5095941;28;20032;-65
2023/07/17 04:56:26;;;;;;;8.70;2.72;;;17.10;69.00;;;;;;5095774;28;20447;-66
2023/07/17 04:58:52;;;;;;;8.43;2.92;;;17.10;69.20;;;;;;5061772;28;20040;-66
2023/07/17 05:01:18;;;;;;;8.38;3.03;;;17.20;69.50;;;;;;5096132;28;20043;-66
2023/07/17 05:03:44;;;;;;;8.20;2.85;;;17.20;69.70;;;;;;5078144;28;20036;-65
2023/07/17 05:06:10;;;;;;;7.78;3.05;;;17.20;69.70;;;;;;5078341;28;20032;-65
2023/07/17 05:08:35;;;;;;;7.28;3.13;;;17.20;69.60;;;;;;5078552;28;20048;-65
2023/07/17 05:11:02;;;;;;;6.90;3.38;;;17.30;69.70;;;;;;5096509;28;20460;-66
2023/07/17 05:13:28;;;;;;;10.73;2.95;;;17.30;69.70;;;;;;5077562;28;20043;-66
2023/07/17 05:15:54;;;;;;;10.32;2.72;;;17.30;69.50;;;;;;5096582;28;20074;-65
2023/07/17 05:18:20;;;;;;;9.63;3.30;;;17.40;69.50;;;;;;5094230;28;20052;-66
2023/07/17 05:20:48;;;;;;;9.55;2.53;;;17.40;69.50;;;;;;5093610;28;20028;-66
2023/07/17 05:23:14;;;;;;;7.60;2.95;;;17.50;69.60;;;;;;5068696;28;20055;-65
2023/07/17 05:25:41;;;;;;;8.25;3.33;;;17.50;69.90;;;;;;5077607;28;20040;-65
2023/07/17 05:28:07;;;;;;;7.22;2.78;;;17.50;69.90;;;;;;5078187;28;20368;-65
2023/07/17 05:30:34;;;;;;;9.65;3.10;;;17.60;70.10;;;;;;5078151;28;20051;-65
2023/07/17 05:32:59;;;;;;;7.40;2.70;;;17.50;69.90;;;;;;5093500;28;20047;-66
2023/07/17 05:35:25;;;;;;;8.18;2.85;;;17.60;69.90;;;;;;5077451;28;20040;-66
2023/07/17 05:37:52;;;;;;;7.32;2.95;;;17.60;69.80;;;;;;5095669;28;20044;-66
2023/07/17 05:40:18;;;;;;;8.82;3.45;;;17.70;69.60;;;;;;5094582;28;20036;-66
2023/07/17 05:42:44;;;;;;;6.43;2.55;;;17.60;69.60;;;;;;5077111;28;20132;-65
2023/07/17 05:45:10;;;;;;;7.30;2.90;;;17.70;69.40;;;;;;5095924;28;20497;-65
2023/07/17 05:47:40;;;;;;;9.30;2.92;;;17.70;69.20;;;;;;5092912;28;20048;-65
2023/07/17 05:50:10;;;;;;;5.97;2.50;;;17.70;69.20;;;;;;5090175;28;20118;-65
2023/07/17 05:52:41;;;;;;;10.95;3.33;;;17.70;69.10;;;;;;5085077;28;20118;-65
2023/07/17 05:55:07;;;;;;;7.35;3.30;;;17.70;69.10;;;;;;5074384;28;20461;-65
2023/07/17 05:57:33;;;;;;;6.40;2.63;;;17.70;69.10;;;;;;5063177;28;20048;-66
2023/07/17 05:59:58;;;;;;;6.45;2.72;;;17.70;69.10;;;;;;5090546;28;20111;-66
2023/07/17 06:02:24;;;;;;;5.97;2.72;;;17.70;69.00;;;;;;5073786;28;20043;-65
2023/07/17 06:04:50;;;;;;;8.80;3.53;;;17.80;69.20;;;;;;5091613;28;20063;-65
2023/07/17 06:07:15;;;;;;;8.68;3.15;;;17.80;69.00;;;;;;5074782;28;20078;-66
2023/07/17 06:09:41;;;;;;;5.60;2.50;;;17.80;68.80;;;;;;5074529;28;20071;-65
2023/07/17 06:12:07;;;;;;;7.25;3.50;;;17.80;68.60;;;;;;5074641;28;20075;-66
2023/07/17 06:14:33;;;;;;;9.13;3.17;;;17.90;68.60;;;;;;5074751;28;20036;-66
2023/07/17 06:16:58;;;;;;;9.85;3.75;;;17.90;69.40;;;;;;5057152;28;20060;-66
2023/07/17 06:19:24;;;;;;;9.73;3.53;;;18.00;69.80;;;;;;5092112;28;20047;-66
2023/07/17 06:21:50;;;;;;;12.60;4.43;;;18.20;70.30;;;;;;5074025;28;20391;-66
2023/07/17 06:24:15;;;;;;;8.88;3.63;;;18.50;69.70;;;;;;5074613;28;20104;-66
2023/07/17 06:26:42;;;;;;;9.88;4.03;;;18.70;69.70;;;;;;5074581;28;20051;-66
2023/07/17 06:29:09;;;;;;;7.88;3.70;;;19.00;69.20;;;;;;5074239;28;20036;-65
2023/07/17 06:31:35;;;;;;;8.80;3.80;;;19.40;67.90;;;;;;5092477;28;20514;-66
2023/07/17 06:34:01;;;;;;;6.78;3.35;;;19.70;66.10;;;;;;5085625;28;20040;-66
2023/07/17 06:36:27;;;;;;;9.93;3.47;;;20.00;65.70;;;;;;5074791;28;20047;-66
2023/07/17 06:38:52;;;;;;;8.00;3.67;;;20.30;64.50;;;;;;5092273;28;20097;-66
2023/07/17 06:41:18;;;;;;;11.02;3.92;;;20.50;63.30;;;;;;5074396;28;20039;-66
2023/07/17 06:43:44;;;;;;;10.38;3.88;;;20.80;62.70;;;;;;5074229;28;20044;-66
2023/07/17 06:46:10;;;;;;;10.30;4.38;;;21.00;61.60;;;;;;5057294;28;20097;-67
2023/07/17 06:48:36;;;;;;;9.60;4.28;;;21.30;60.70;;;;;;5092314;28;20051;-67
2023/07/17 06:51:04;;;;;;;8.63;4.15;;;21.50;59.80;;;;;;5074086;28;20040;-65
2023/07/17 06:53:31;;;;;;;12.27;4.90;;;21.70;59.30;;;;;;5074249;28;20552;-66
2023/07/17 06:55:57;;;;;;;8.05;4.18;;;22.00;58.90;;;;;;5092189;28;20495;-66
2023/07/17 06:58:24;;;;;;;10.15;4.65;;;22.10;57.70;;;;;;5087088;28;20253;-66
2023/07/17 07:00:57;;;;;;;11.25;4.40;;;22.20;57.20;;;;;;5085912;28;20036;-66
2023/07/17 07:03:24;;;;;;;10.43;3.90;;;22.30;56.80;;;;;;5053344;28;20048;-66
2023/07/17 07:06:04;;;;;;;10.50;4.53;;;22.30;56.90;;;;;;5091156;28;20502;-66
2023/07/17 07:08:31;;;;;;;10.75;4.55;;;22.50;56.80;;;;;;5075635;28;20053;-66
2023/07/17 07:10:59;;;;;;;9.63;4.25;;;22.70;56.10;;;;;;5094965;28;20043;-66
2023/07/17 07:13:25;;;;;;;9.60;4.10;;;22.80;55.60;;;;;;5077371;28;20040;-66
2023/07/17 07:15:51;;;;;;;9.65;4.38;;;23.00;55.40;;;;;;5077874;28;20044;-66
2023/07/17 07:18:18;;;;;;;9.20;4.43;;;23.20;55.60;;;;;;5095527;28;20052;-66
2023/07/17 07:20:45;;;;;;;10.82;5.03;;;23.50;54.90;;;;;;5077685;28;20127;-66
2023/07/17 07:23:11;;;;;;;8.90;4.57;;;23.80;54.60;;;;;;5077479;28;20374;-66
2023/07/17 07:25:37;;;;;;;8.93;3.83;;;24.10;54.30;;;;;;5077843;28;20051;-67
2023/07/17 07:28:03;;;;;;;9.38;3.97;;;24.20;52.90;;;;;;5077391;28;20052;-66
2023/07/17 07:30:29;;;;;;;10.18;4.82;;;24.30;52.00;;;;;;5077614;28;20040;-66
2023/07/17 07:32:55;;;;;;;9.98;4.43;;;24.30;51.10;;;;;;5077457;28;20039;-66
2023/07/17 07:35:21;;;;;;;11.30;4.40;;;24.30;50.90;;;;;;5077190;28;20077;-66
2023/07/17 07:37:47;;;;;;;10.55;4.82;;;24.20;51.30;;;;;;5077234;28;20548;-66
2023/07/17 07:40:13;;;;;;;10.57;4.22;;;24.10;51.10;;;;;;5076927;28;20036;-67
2023/07/17 07:42:39;;;;;;;13.65;5.05;;;24.00;51.00;;;;;;5077387;28;20031;-65
2023/07/17 07:45:05;;;;;;;9.43;4.28;;;23.90;51.40;;;;;;5077189;28;20122;-66
2023/07/17 07:47:32;;;;;;;8.70;4.65;;;23.80;51.70;;;;;;5060420;28;20547;-66
2023/07/17 07:49:57;;;;;;;9.68;4.05;;;23.70;51.90;;;;;;5077250;28;20487;-66
2023/07/17 07:52:24;;;;;;;11.90;4.70;;;23.60;51.80;;;;;;5094836;28;20040;-66
2023/07/17 07:54:49;;;;;;;10.40;5.13;;;23.40;52.30;;;;;;5095158;28;20036;-65
2023/07/17 07:57:15;;;;;;;9.25;4.05;;;23.30;52.90;;;;;;5095119;28;20066;-66
2023/07/17 07:59:41;;;;;;;8.18;4.45;;;23.10;53.40;;;;;;5077124;28;20479;-65
2023/07/17 08:02:07;;;;;;;13.90;5.45;;;23.00;53.70;;;;;;5077027;28;20115;-66
2023/07/17 08:04:33;;;;;;;9.25;4.70;;;22.90;54.20;;;;;;5074649;28;20475;-66
2023/07/17 08:06:58;;;;;;;11.18;4.68;;;22.80;54.80;;;;;;5076981;28;20050;-66
2023/07/17 08:09:25;;;;;;;9.10;4.18;;;22.70;55.40;;;;;;5076569;28;20544;-66
2023/07/17 08:11:52;;;;;;;8.25;4.10;;;22.50;55.60;;;;;;5094628;28;20036;-66
2023/07/17 08:14:21;;;;;;;7.57;4.18;;;22.40;55.50;;;;;;5076529;28;20062;-66
2023/07/17 08:16:50;;;;;;;10.35;5.30;;;22.30;55.70;;;;;;5094262;28;20054;-66
2023/07/17 08:19:17;;;;;;;9.75;5.05;;;22.10;56.20;;;;;;5094511;28;20039;-66
2023/07/17 08:21:43;;;;;;;8.07;4.05;;;22.00;56.40;;;;;;5094645;28;20500;-66
2023/07/17 08:24:12;;;;;;;10.95;4.07;;;21.90;56.80;;;;;;5076490;28;20040;-66
2023/07/17 08:26:40;;;;;;;7.68;4.07;;;21.80;57.30;;;;;;5094182;28;20038;-66
2023/07/17 08:29:07;;;;;;;8.90;3.97;;;21.60;57.70;;;;;;5076405;28;20036;-66
2023/07/17 08:31:33;;;;;;;9.20;4.35;;;21.60;58.10;;;;;;5076086;28;20092;-66
2023/07/17 08:34:00;;;;;;;7.82;3.65;;;21.50;58.60;;;;;;5094304;28;20035;-66
2023/07/17 08:36:27;;;;;;;7.80;4.10;;;21.40;59.00;;;;;;5076182;28;20474;-66
2023/07/17 08:38:53;;;;;;;7.40;4.10;;;21.30;59.70;;;;;;5094280;28;20044;-66
2023/07/17 08:41:19;;;;;;;10.57;4.10;;;21.40;60.90;;;;;;5094419;28;20032;-67
2023/07/17 08:43:45;;;;;;;8.02;4.40;;;21.50;61.10;;;;;;5068092;28;20044;-67
2023/07/17 08:46:12;;;;;;;8.10;3.78;;;21.60;62.00;;;;;;5076225;28;20032;-67
2023/07/17 08:48:43;;;;;;;7.15;4.18;;;21.70;61.40;;;;;;5076087;28;20040;-67
2023/07/17 08:51:10;;;;;;;11.93;4.25;;;21.90;61.30;;;;;;5073897;28;20132;-67
2023/07/17 08:53:38;;;;;;;10.02;3.92;;;22.00;60.70;;;;;;5075814;28;20044;-67
2023/07/17 08:56:05;;;;;;;6.88;3.38;;;22.20;59.90;;;;;;5075872;28;20055;-67
2023/07/17 08:58:30;;;;;;;9.38;3.55;;;22.40;58.60;;;;;;5075754;28;20062;-67
2023/07/17 09:00:57;;;;;;;7.05;3.40;;;22.50;57.50;;;;;;5076190;28;20475;-67
2023/07/17 09:03:23;;;;;;;8.27;3.22;;;22.60;56.60;;;;;;5093830;28;20036;-67
2023/07/17 09:05:49;;;;;;;8.10;3.33;;;22.70;56.00;;;;;;5075305;28;20479;-67
2023/07/17 09:08:16;;;;;;;6.85;2.83;;;22.70;55.60;;;;;;5075782;28;20089;-67
2023/07/17 09:10:42;;;;;;;9.80;3.05;;;22.80;55.40;;;;;;5075265;28;20043;-67
2023/07/17 09:13:09;;;;;;;8.00;3.25;;;22.90;54.20;;;;;;5075432;28;20074;-67
2023/07/17 09:15:35;;;;;;;8.98;3.20;;;23.00;54.30;;;;;;5075639;28;20066;-67
2023/07/17 09:18:02;;;;;;;5.65;3.20;;;23.10;53.60;;;;;;5093317;28;20054;-67
2023/07/17 09:20:27;;;;;;;7.05;3.17;;;23.20;53.90;;;;;;5093689;28;20040;-67
2023/07/17 09:23:00;;;;;;;7.05;2.83;;;23.30;53.10;;;;;;5073654;28;20044;-67
2023/07/17 09:25:28;;;;;;;6.10;2.70;;;23.50;52.50;;;;;;5093509;28;20032;-67
2023/07/17 09:27:54;;;;;;;8.48;2.92;;;23.50;52.20;;;;;;5074976;28;20402;-67
2023/07/17 09:30:22;;;;;;;7.13;2.50;;;23.60;52.00;;;;;;5058645;28;20047;-67
2023/07/17 09:32:49;;;;;;;8.10;2.88;;;23.60;52.30;;;;;;5074830;28;20514;-67
2023/07/17 09:35:18;;;;;;;10.40;3.33;;;23.80;52.40;;;;;;5075321;28;20044;-67
2023/07/17 09:37:44;;;;;;;4.75;2.63;;;23.90;51.60;;;;;;5093434;28;20463;-67
2023/07/17 09:40:11;;;;;;;5.90;2.80;;;24.00;51.20;;;;;;5093047;28;20055;-67
2023/07/17 09:42:39;;;;;;;6.35;2.70;;;24.10;50.80;;;;;;5093368;28;20111;-67
2023/07/17 09:45:05;;;;;;;5.85;2.40;;;24.20;49.90;;;;;;5066967;28;20501;-67
2023/07/17 09:47:31;;;;;;;7.88;3.05;;;24.40;49.20;;;;;;5074719;28;20508;-67
2023/07/17 09:49:58;;;;;;;5.72;3.08;;;24.50;48.20;;;;;;5092994;28;20032;-67
2023/07/17 09:52:25;;;;;;;6.30;2.20;;;24.60;48.70;;;;;;5075032;28;20055;-67
2023/07/17 09:54:51;;;;;;;7.47;2.50;;;24.70;48.20;;;;;;5073244;28;20836;-67
2023/07/17 09:57:28;;;;;;;4.20;2.20;;;24.90;47.50;;;;;;5057084;28;20044;-67
2023/07/17 10:00:00;;;;;;;6.22;2.38;;;25.00;46.90;;;;;;5091326;28;20039;-67
2023/07/17 10:02:33;;;;;;;6.78;2.20;;;25.10;46.10;;;;;;5074287;28;20394;-67
2023/07/17 10:05:00;;;;;;;4.53;2.47;;;25.20;45.80;;;;;;5050146;28;20044;-67
2023/07/17 10:07:29;;;;;;;6.03;3.08;;;25.20;45.90;;;;;;5069369;28;20053;-67
2023/07/17 10:09:57;;;;;;;4.72;2.53;;;25.40;45.70;;;;;;5072564;28;20079;-68
2023/07/17 10:12:22;;;;;;;7.47;2.75;;;25.40;45.10;;;;;;5074575;28;20051;-67
2023/07/17 10:14:49;;;;;;;6.10;2.63;;;25.40;44.60;;;;;;5074054;28;20046;-66
2023/07/17 10:17:32;;;;;;;7.32;2.45;;;25.40;44.10;;;;;;5084641;28;20055;-67
2023/07/17 10:20:00;;;;;;;5.20;2.50;;;25.30;44.20;;;;;;5067887;28;20110;-67
2023/07/17 10:22:46;;;;;;;5.75;2.60;;;25.20;44.70;;;;;;5074222;28;20054;-68
2023/07/17 10:25:18;;;;;;;5.28;2.60;;;25.20;44.20;;;;;;5067084;28;20115;-66
2023/07/17 10:28:14;;;;;;;6.10;2.85;;;25.10;44.90;;;;;;5074323;28;20479;-66
2023/07/17 10:30:48;;;;;;;7.63;3.05;;;25.00;45.20;;;;;;5070153;28;20052;-66
2023/07/17 10:33:15;;;;;;;6.80;2.95;;;25.00;45.60;;;;;;5072857;28;20040;-66
2023/07/17 10:35:56;;;;;;;5.65;2.42;;;25.00;45.20;;;;;;5078326;28;20055;-66
2023/07/17 10:38:27;;;;;;;6.22;2.42;;;25.00;45.50;;;;;;5070990;28;20132;-66
2023/07/17 10:41:23;;;;;;;5.22;2.38;;;25.00;46.10;;;;;;5078303;28;20098;-66
2023/07/17 10:44:00;;;;;;;5.68;2.22;;;25.00;45.80;;;;;;5078707;28;20040;-67
2023/07/17 10:46:30;;;;;;;4.22;2.20;;;25.10;45.80;;;;;;5071383;28;20475;-67
2023/07/17 10:49:08;;;;;;;6.63;2.58;;;25.10;45.30;;;;;;5078091;28;20503;-66
2023/07/17 10:51:36;;;;;;;5.95;2.30;;;25.20;45.10;;;;;;5089968;28;20028;-66
2023/07/17 10:54:02;;;;;;;9.38;2.72;;;25.20;45.00;;;;;;5077940;28;20036;-66
2023/07/17 10:56:31;;;;;;;4.70;1.83;;;25.20;45.40;;;;;;5078225;28;20032;-66
2023/07/17 10:58:57;;;;;;;7.75;2.58;;;25.40;45.00;;;;;;5078093;28;20363;-67
2023/07/17 11:01:23;;;;;;;6.90;2.30;;;25.40;45.00;;;;;;5077908;28;20131;-67
2023/07/17 11:03:49;;;;;;;6.65;2.78;;;25.50;45.30;;;;;;5077999;28;20118;-67
2023/07/17 11:06:19;;;;;;;8.85;3.55;;;25.50;45.00;;;;;;5095775;28;20036;-67
2023/07/17 11:08:49;;;;;;;6.28;2.63;;;25.60;44.00;;;;;;5077862;28;20047;-67
2023/07/17 11:11:15;;;;;;;4.38;2.38;;;25.60;44.40;;;;;;5077708;28;20127;-67
2023/07/17 11:13:44;;;;;;;5.63;2.20;;;25.60;44.20;;;;;;5077755;28;20552;-67
2023/07/17 11:16:10;;;;;;;5.43;2.47;;;25.60;44.40;;;;;;5095827;28;20066;-67
2023/07/17 11:18:50;;;;;;;4.57;2.45;;;25.60;44.60;;;;;;5077327;28;20495;-67
2023/07/17 11:21:18;;;;;;;6.97;2.38;;;25.60;44.20;;;;;;5077533;28;20040;-67
2023/07/17 11:23:51;;;;;;;6.05;2.70;;;25.50;44.00;;;;;;5077931;28;20050;-67
2023/07/17 11:26:27;;;;;;;6.07;2.50;;;25.50;43.90;;;;;;5060295;28;20036;-67
2023/07/17 11:28:55;;;;;;;7.47;2.13;;;25.50;44.30;;;;;;5077673;28;20679;-67
2023/07/17 11:31:27;;;;;;;4.50;2.17;;;25.40;44.30;;;;;;5077318;28;20132;-67
2023/07/17 11:33:57;;;;;;;5.45;2.08;;;25.40;44.50;;;;;;5095628;28;20039;-67
2023/07/17 11:36:41;;;;;;;5.88;2.42;;;25.50;44.50;;;;;;5077651;28;20418;-67
2023/07/17 11:39:15;;;;;;;4.15;2.08;;;25.50;43.80;;;;;;5077383;28;20086;-67
2023/07/17 11:42:01;;;;;;;4.20;1.80;;;25.60;43.90;;;;;;5061556;28;20131;-67
2023/07/17 11:44:29;;;;;;;5.35;2.20;;;25.60;43.70;;;;;;5062777;28;20041;-67
2023/07/17 11:46:58;;;;;;;8.02;2.33;;;25.50;43.50;;;;;;5063441;28;20058;-67
2023/07/17 11:49:25;;;;;;;4.53;2.03;;;25.60;43.30;;;;;;5065676;28;20048;-65
2023/07/17 11:51:51;;;;;;;5.88;1.80;;;25.60;43.60;;;;;;5049864;28;20063;-66
2023/07/17 11:54:17;;;;;;;4.78;1.80;;;25.60;43.40;;;;;;5062243;28;20072;-66
2023/07/17 11:56:44;;;;;;;4.35;2.22;;;25.70;43.40;;;;;;5062775;28;20463;-67
2023/07/17 11:59:21;;;;;;;3.80;1.73;;;25.70;43.60;;;;;;5066238;28;20040;-66
2023/07/17 12:01:48;;;;;;;6.13;2.20;;;25.80;43.50;;;;;;5066881;28;20040;-66
2023/07/17 12:04:23;;;;;;;6.13;2.20;;;25.80;44.00;;;;;;5080673;28;20039;-65
2023/07/17 12:06:49;;;;;;;5.47;2.00;;;25.70;44.40;;;;;;5063167;28;20044;-67
2023/07/17 12:09:17;;;;;;;7.63;2.30;;;25.60;44.80;;;;;;5068251;28;20050;-67
2023/07/17 12:11:44;;;;;;;5.25;1.73;;;25.40;45.00;;;;;;5067018;28;20043;-67
2023/07/17 12:14:11;;;;;;;7.20;2.47;;;25.40;46.00;;;;;;5072083;28;20101;-67
2023/07/17 12:16:37;;;;;;;5.05;1.90;;;25.30;46.10;;;;;;5052338;28;20051;-67
2023/07/17 12:19:03;;;;;;;4.65;1.90;;;25.20;46.10;;;;;;5068422;28;20048;-67
2023/07/17 12:21:29;;;;;;;4.22;1.73;;;25.20;46.20;;;;;;5069369;28;20427;-67
2023/07/17 12:23:54;;;;;;;3.60;1.85;;;25.10;45.90;;;;;;5067834;28;20067;-67
2023/07/17 12:26:20;;;;;;;3.40;2.13;;;25.10;46.30;;;;;;5070390;28;20039;-67
2023/07/17 12:28:46;;;;;;;4.63;2.42;;;25.00;46.00;;;;;;5070436;28;20051;-67
2023/07/17 12:31:11;;;;;;;4.32;2.08;;;25.00;45.80;;;;;;5088400;28;20446;-67
2023/07/17 12:33:37;;;;;;;4.00;2.25;;;24.90;45.70;;;;;;5068223;28;20054;-67
2023/07/17 12:36:03;;;;;;;6.32;2.15;;;24.80;45.60;;;;;;5088189;28;20128;-67
2023/07/17 12:38:29;;;;;;;6.55;2.10;;;24.80;45.60;;;;;;5070060;28;20047;-67
2023/07/17 12:40:54;;;;;;;5.80;2.10;;;24.70;45.60;;;;;;5069806;28;20059;-67
2023/07/17 12:43:20;;;;;;;4.88;2.20;;;24.60;45.70;;;;;;5069356;28;20032;-67
2023/07/17 12:45:46;;;;;;;3.92;1.90;;;24.60;45.60;;;;;;5068947;28;20043;-67